< Typhoon 197001 1970 Season Typhoon 197003 >
Typhoon 197002 (OLGA)
General InformationTrack Information on Google Maps || NewsDisaster Info.ResourceGoogle EarthGE AnimationAtom FeedGeoJSON
Detalied Best Track (Time Zone = UTC)
Year Month Day Hour Lat. Long. Pressure (hPa) Wind (kt) Class Image Chart
1970 6 27 18 8.2 145.5 1008 0 2 -- Chart
1970 6 28 00 9.0 144.0 1008 0 2 -- Chart
1970 6 28 06 9.7 142.6 1006 0 2 -- Chart
1970 6 28 12 10.5 141.2 1006 0 2 -- Chart
1970 6 28 18 11.3 140.0 1002 0 2 -- Chart
1970 6 29 00 12.1 138.4 995 0 2 -- Chart
1970 6 29 06 12.8 136.7 985 0 9 -- Chart
1970 6 29 12 13.2 135.2 975 0 9 -- Chart
1970 6 29 18 13.6 133.8 965 0 9 -- Chart
1970 6 30 00 14.0 132.7 960 0 9 -- Chart
1970 6 30 06 14.8 131.7 955 0 9 -- Chart
1970 6 30 12 16.0 130.9 945 0 9 -- Chart
1970 6 30 18 17.1 129.8 935 0 9 -- Chart
1970 7 1 00 17.9 128.5 910 0 9 -- Chart
1970 7 1 06 18.6 127.6 905 0 9 -- Chart
1970 7 1 12 19.4 126.8 905 0 9 -- Chart
1970 7 1 18 20.2 126.0 910 0 9 -- Chart
1970 7 2 00 21.0 125.6 910 0 9 -- Chart
1970 7 2 06 21.8 125.3 920 0 9 -- Chart
1970 7 2 12 22.4 124.9 935 0 9 -- Chart
1970 7 2 18 23.4 124.8 945 0 9 -- Chart
1970 7 3 00 24.3 125.0 955 0 9 -- Chart
1970 7 3 06 25.3 125.1 960 0 9 -- Chart
1970 7 3 12 26.0 125.6 955 0 9 -- Chart
1970 7 3 18 26.9 126.4 950 0 9 -- Chart
1970 7 4 00 27.7 127.5 950 0 9 -- Chart
1970 7 4 06 28.6 128.8 960 0 9 -- Chart
1970 7 4 12 29.5 130.5 965 0 9 -- Chart
1970 7 4 18 30.9 132.5 965 0 9 -- Chart
1970 7 5 00 32.0 134.0 955 0 9 -- Chart
1970 7 5 06 33.0 135.1 955 0 9 -- Chart
1970 7 5 12 34.1 135.2 970 0 9 -- Chart
1970 7 5 18 35.5 134.6 985 0 9 -- Chart
1970 7 6 00 36.9 132.0 990 0 6 -- Chart
1970 7 6 06 36.9 130.8 990 0 6 -- Chart
1970 7 6 12 36.0 128.7 996 0 6 -- Chart
1970 7 6 18 34.9 127.3 998 0 6 -- Chart
1970 7 7 00 33.9 127.0 1000 0 6 -- Chart
1970 7 7 06 33.0 127.0 1000 0 6 -- Chart
Japan Meteorological Agency Best Track Data | Correction Date : 1989-06-01
< Typhoon 197001 1970 Season Typhoon 197003 >

Help